< < Back
Terminal Aerodrome Forecast


Current Version              Previous Versions:   1  2  3  4  5  6  7  8  9  

Terminal Aerodrome Forecast

259
FTUS42 KJAX 280520
TAFJAX
TAF
KJAX 280520Z 2806/2906 25003KT P6SM FEW060 FEW250
     FM281400 24007KT P6SM SCT025
     FM282100 15010KT P6SM SCT050 SCT250=

Latest METAR

811
SAUS80 KWBC 281300 CCA
MTRJAX
METAR KJAX 281256Z 23006KT 10SM FEW020 SCT250 27/23 A3000 RMK AO2 SLP160
T02720228


USA.gov is the U.S. government's official web portal to all federal, state and local government web resources and services.